createdAt,value
2023-04-28T00:01:16.897Z,99263.53
2023-04-28T00:06:18.279Z,99264.89
2023-04-28T00:11:19.267Z,99267.26
2023-04-28T00:16:20.340Z,99265.21
2023-04-28T00:21:21.836Z,99255.52
2023-04-28T00:26:23.081Z,99255.07
2023-04-28T00:31:24.235Z,99252.13
2023-04-28T00:36:26.103Z,99249.58
2023-04-28T00:41:28.442Z,99255.33
2023-04-28T00:46:33.875Z,99249.73
2023-04-28T00:51:35.043Z,99249.47
2023-04-28T00:56:36.093Z,99246.53
2023-04-28T01:01:37.822Z,99247.09
2023-04-28T01:06:41.695Z,99244.48
2023-04-28T01:11:42.700Z,99245.89
2023-04-28T01:16:45.479Z,99246.02
2023-04-28T01:21:46.633Z,99250.14
2023-04-28T01:26:57.675Z,99250.60
2023-04-28T01:31:58.805Z,99247.41
2023-04-28T01:37:00.041Z,99246.30
2023-04-28T01:42:01.595Z,99254.14
2023-04-28T01:47:02.850Z,99253.21
2023-04-28T01:52:04.167Z,99255.79
2023-04-28T01:57:06.835Z,99247.88
2023-04-28T02:02:08.421Z,99252.07
2023-04-28T02:07:09.736Z,99246.83
2023-04-28T02:12:10.841Z,99241.16
2023-04-28T02:17:12.392Z,99241.92
2023-04-28T02:22:13.810Z,99240.51
2023-04-28T02:27:15.146Z,99234.88
2023-04-28T02:32:16.385Z,99225.45
2023-04-28T02:37:17.374Z,99225.48
2023-04-28T02:42:18.642Z,99228.41
2023-04-28T02:47:20.540Z,99227.30
2023-04-28T02:52:21.581Z,99224.77
2023-04-28T02:57:23.863Z,99223.71
2023-04-28T03:02:25.359Z,99224.48
2023-04-28T03:07:26.445Z,99227.13
2023-04-28T03:12:27.868Z,99236.80
2023-04-28T03:17:29.837Z,99227.75
2023-04-28T03:22:30.862Z,99225.80
2023-04-28T03:27:32.399Z,99227.83
2023-04-28T03:32:33.447Z,99227.77
2023-04-28T03:37:34.578Z,99224.69
2023-04-28T03:42:35.784Z,99223.81
2023-04-28T03:47:44.488Z,99218.70
2023-04-28T03:52:45.806Z,99212.09
2023-04-28T03:57:47.279Z,99216.95
2023-04-28T04:02:48.824Z,99215.81
2023-04-28T04:07:50.387Z,99215.86
2023-04-28T04:12:51.564Z,99220.53
2023-04-28T04:17:52.808Z,99227.73
2023-04-28T04:22:55.620Z,99230.45
2023-04-28T04:27:56.689Z,99236.34
2023-04-28T04:32:57.811Z,99234.55
2023-04-28T04:38:00.617Z,99235.15
2023-04-28T04:43:02.230Z,99239.09
2023-04-28T04:48:11.928Z,99240.03
2023-04-28T04:53:16.083Z,99235.62
2023-04-28T04:58:22.369Z,99230.14
2023-04-28T05:03:53.161Z,99224.95
2023-04-28T05:08:56.046Z,99222.70
2023-04-28T05:13:57.843Z,99222.27
2023-04-28T05:18:59.347Z,99221.65
2023-04-28T05:24:01.408Z,99225.69
2023-04-28T05:29:03.373Z,99227.42
2023-04-28T05:34:04.457Z,99227.02
2023-04-28T05:39:11.084Z,99225.02
2023-04-28T05:44:15.493Z,99228.05
2023-04-28T05:49:17.225Z,99230.60
2023-04-28T05:54:18.954Z,99229.00
2023-04-28T05:59:22.934Z,99226.63
2023-04-28T06:04:33.008Z,99229.45
2023-04-28T06:09:36.089Z,99227.02
2023-04-28T06:14:37.283Z,99223.62
2023-04-28T06:19:38.324Z,99224.40
2023-04-28T06:24:41.163Z,99221.58
2023-04-28T06:29:44.859Z,99214.95
2023-04-28T06:34:45.827Z,99214.59
2023-04-28T06:39:47.273Z,99213.03
2023-04-28T06:44:48.246Z,99210.52
2023-04-28T06:49:49.616Z,99212.88
2023-04-28T06:54:50.894Z,99202.85
2023-04-28T06:59:51.906Z,99195.52
2023-04-28T07:04:52.877Z,99191.88
2023-04-28T07:09:54.016Z,99185.35
2023-04-28T07:14:55.402Z,99176.42
2023-04-28T07:19:58.117Z,99173.15
2023-04-28T07:24:59.081Z,99171.35
2023-04-28T07:30:01.900Z,99165.81
2023-04-28T07:35:06.521Z,99162.11
2023-04-28T07:40:08.414Z,99159.56
2023-04-28T07:45:19.320Z,99158.86
2023-04-28T07:50:20.503Z,99158.15
2023-04-28T07:55:21.861Z,99152.11
2023-04-28T08:00:23.099Z,99150.69
2023-04-28T08:05:24.547Z,99152.20
2023-04-28T08:10:26.100Z,99149.36
2023-04-28T08:15:27.373Z,99145.82
2023-04-28T08:20:29.574Z,99139.00
2023-04-28T08:25:30.674Z,99133.75
2023-04-28T08:30:33.032Z,99135.42
2023-04-28T08:35:34.069Z,99128.30
2023-04-28T08:40:36.802Z,99123.73
2023-04-28T08:45:42.889Z,99116.57
2023-04-28T08:50:49.612Z,99119.21
2023-04-28T08:55:54.796Z,99112.99
2023-04-28T09:00:56.287Z,99113.70
2023-04-28T09:05:57.740Z,99107.29
2023-04-28T09:11:07.317Z,99106.08
2023-04-28T09:16:08.543Z,99100.52
2023-04-28T09:21:09.709Z,99093.20
2023-04-28T09:26:10.706Z,99092.61
2023-04-28T09:31:26.614Z,99089.04
2023-04-28T09:36:31.953Z,99075.34
2023-04-28T09:41:37.737Z,99068.80
2023-04-28T09:46:39.514Z,99064.23
2023-04-28T09:51:41.004Z,99054.86
2023-04-28T09:56:43.473Z,99052.79
2023-04-28T10:01:45.661Z,99042.05
2023-04-28T10:06:47.207Z,99037.30
2023-04-28T10:11:48.617Z,99027.66
2023-04-28T10:16:51.434Z,99020.75
2023-04-28T10:22:06.839Z,99013.83
2023-04-28T10:27:09.124Z,99008.50
2023-04-28T10:32:28.383Z,99005.05
2023-04-28T10:38:07.756Z,98994.41
2023-04-28T10:43:10.751Z,98991.16
2023-04-28T10:48:11.725Z,98972.98
2023-04-28T10:53:12.727Z,98972.18
2023-04-28T10:58:19.441Z,98965.80
2023-04-28T11:03:39.870Z,98960.43
2023-04-28T11:08:41.287Z,98957.65
2023-04-28T11:13:42.850Z,98951.17
2023-04-28T11:18:55.953Z,98943.50
2023-04-28T11:23:58.461Z,98935.50
2023-04-28T11:28:59.544Z,98933.10
2023-04-28T11:34:06.877Z,98921.92
2023-04-28T11:39:09.920Z,98918.29
2023-04-28T11:44:16.877Z,98916.73
2023-04-28T11:49:19.170Z,98916.23
2023-04-28T11:54:29.465Z,98916.23
2023-04-28T11:59:34.774Z,98904.30
2023-04-28T12:04:37.428Z,98903.10
2023-04-28T12:09:40.960Z,98895.42
2023-04-28T12:14:59.016Z,98888.84
2023-04-28T12:20:02.213Z,98881.62
2023-04-28T12:25:08.593Z,98872.81
2023-04-28T12:30:19.036Z,98863.13
2023-04-28T12:35:22.854Z,98858.25
2023-04-28T12:40:24.147Z,98851.78
2023-04-28T12:45:25.227Z,98849.69
2023-04-28T12:50:27.285Z,98847.19
2023-04-28T12:55:28.796Z,98844.96
2023-04-28T13:00:30.183Z,98836.70
2023-04-28T13:05:32.385Z,98830.15
2023-04-28T13:10:33.387Z,98817.25
2023-04-28T13:15:36.753Z,98812.77
2023-04-28T13:20:39.770Z,98806.41
2023-04-28T13:25:41.324Z,98812.46
2023-04-28T13:30:42.344Z,98809.77
2023-04-28T13:35:43.863Z,98793.92
2023-04-28T13:40:44.998Z,98785.98
2023-04-28T13:45:46.465Z,98784.16
2023-04-28T13:50:47.628Z,98780.25
2023-04-28T13:55:50.757Z,98779.27
2023-04-28T14:00:54.065Z,98779.98
2023-04-28T14:05:57.935Z,98767.30
2023-04-28T14:10:59.128Z,98758.68
2023-04-28T14:16:00.309Z,98749.71
2023-04-28T14:21:07.467Z,98746.73
2023-04-28T14:26:08.487Z,98744.65
2023-04-28T14:31:10.051Z,98736.48
2023-04-28T14:36:11.206Z,98736.55
2023-04-28T14:41:12.359Z,98734.23
2023-04-28T14:46:13.726Z,98736.67
2023-04-28T14:51:15.991Z,98738.46
2023-04-28T14:56:19.229Z,98733.60
2023-04-28T15:01:21.039Z,98727.65
2023-04-28T15:06:22.101Z,98728.30
2023-04-28T15:11:23.332Z,98730.88
2023-04-28T15:16:24.461Z,98726.80
2023-04-28T15:21:25.586Z,98723.91
2023-04-28T15:26:29.984Z,98718.34
2023-04-28T15:31:31.245Z,98716.31
2023-04-28T15:36:37.015Z,98706.45
2023-04-28T15:41:38.095Z,98699.09
2023-04-28T15:46:39.377Z,98694.20
2023-04-28T15:51:40.323Z,98694.39
2023-04-28T15:56:42.007Z,98688.24
2023-04-28T16:01:44.085Z,98686.91
2023-04-28T16:06:45.335Z,98683.55
2023-04-28T16:11:46.536Z,98689.35
2023-04-28T16:16:47.562Z,98685.86
2023-04-28T16:21:49.073Z,98682.84
2023-04-28T16:26:51.232Z,98686.86
2023-04-28T16:31:52.423Z,98679.15
2023-04-28T16:36:53.535Z,98680.66
2023-04-28T16:41:54.837Z,98676.30
2023-04-28T16:47:00.002Z,98671.40
2023-04-28T16:52:03.418Z,98676.36
2023-04-28T16:57:04.435Z,98677.02
2023-04-28T17:02:06.069Z,98681.11
2023-04-28T17:07:07.710Z,98678.83
2023-04-28T17:12:08.895Z,98683.79
2023-04-28T17:17:09.940Z,98675.01
2023-04-28T17:22:11.622Z,98679.99
2023-04-28T17:27:14.167Z,98673.44
2023-04-28T17:32:15.469Z,98675.82
2023-04-28T17:37:16.695Z,98676.42
2023-04-28T17:42:17.805Z,98676.83
2023-04-28T17:47:18.773Z,98679.91
2023-04-28T17:52:20.125Z,98680.08
2023-04-28T17:57:21.082Z,98680.58
2023-04-28T18:02:22.117Z,98679.31
2023-04-28T18:07:23.114Z,98676.84
2023-04-28T18:12:25.479Z,98680.83
2023-04-28T18:17:26.582Z,98674.86
2023-04-28T18:22:27.728Z,98679.02
2023-04-28T18:27:28.712Z,98686.23
2023-04-28T18:32:33.144Z,98690.34
2023-04-28T18:37:36.436Z,98691.45
2023-04-28T18:42:37.531Z,98692.40
2023-04-28T18:47:39.492Z,98692.64
2023-04-28T18:52:41.359Z,98698.70
2023-04-28T18:57:43.050Z,98701.84
2023-04-28T19:02:44.531Z,98697.23
2023-04-28T19:07:45.975Z,98701.52
2023-04-28T19:12:46.969Z,98702.35
2023-04-28T19:17:48.003Z,98702.98
2023-04-28T19:22:50.993Z,98703.45
2023-04-28T19:27:52.256Z,98699.13
2023-04-28T19:32:53.358Z,98693.96
2023-04-28T19:37:55.219Z,98685.73
2023-04-28T19:43:06.780Z,98685.51
2023-04-28T19:48:08.097Z,98682.04
2023-04-28T19:53:09.278Z,98683.01
2023-04-28T19:58:10.587Z,98678.84
2023-04-28T20:03:12.470Z,98672.09
2023-04-28T20:08:13.647Z,98666.70
2023-04-28T20:13:14.694Z,98665.96
2023-04-28T20:18:16.765Z,98662.69
2023-04-28T20:23:17.776Z,98659.42
2023-04-28T20:28:18.745Z,98668.61
2023-04-28T20:33:19.827Z,98669.57
2023-04-28T20:38:21.670Z,98669.04
2023-04-28T20:43:23.420Z,98676.83
2023-04-28T20:48:24.541Z,98677.23
2023-04-28T20:53:26.052Z,98675.45
2023-04-28T20:58:27.600Z,98674.66
2023-04-28T21:03:30.056Z,98667.02
2023-04-28T21:08:31.469Z,98665.04
2023-04-28T21:13:36.542Z,98667.92
2023-04-28T21:18:37.620Z,98665.10
2023-04-28T21:23:39.209Z,98662.77
2023-04-28T21:28:40.902Z,98668.52
2023-04-28T21:33:42.192Z,98665.60
2023-04-28T21:38:43.358Z,98659.52
2023-04-28T21:43:59.068Z,98658.27
2023-04-28T21:49:02.975Z,98654.41
2023-04-28T21:54:05.104Z,98651.35
2023-04-28T21:59:06.253Z,98651.02
2023-04-28T22:04:08.133Z,98645.08
2023-04-28T22:09:09.446Z,98646.44
2023-04-28T22:14:13.584Z,98645.10
2023-04-28T22:19:19.460Z,98642.05
2023-04-28T22:24:20.516Z,98631.33
2023-04-28T22:29:21.876Z,98623.34
2023-04-28T22:34:23.476Z,98622.84
2023-04-28T22:39:26.205Z,98615.89
2023-04-28T22:44:27.528Z,98614.03
2023-04-28T22:49:29.881Z,98610.66
2023-04-28T22:54:31.336Z,98606.08
2023-04-28T22:59:32.598Z,98602.52
2023-04-28T23:04:34.113Z,98596.90
2023-04-28T23:09:36.658Z,98598.11
2023-04-28T23:14:43.185Z,98598.66
2023-04-28T23:19:44.225Z,98595.25
2023-04-28T23:24:45.239Z,98589.98
2023-04-28T23:29:46.401Z,98593.05
2023-04-28T23:34:47.348Z,98585.54
2023-04-28T23:39:50.166Z,98582.28
2023-04-28T23:44:51.966Z,98576.14
2023-04-28T23:50:00.065Z,98570.50
2023-04-28T23:55:01.537Z,98564.86
